createdAt,value
2022-12-28T00:01:21.954Z,76.73
2022-12-28T00:03:49.254Z,76.04
2022-12-28T00:06:16.806Z,75.24
2022-12-28T00:08:43.666Z,77.16
2022-12-28T00:11:24.454Z,77.26
2022-12-28T00:13:56.217Z,75.67
2022-12-28T00:16:34.953Z,77.08
2022-12-28T00:19:04.202Z,75.60
2022-12-28T00:21:31.560Z,75.83
2022-12-28T00:23:59.364Z,77.10
2022-12-28T00:26:32.847Z,76.83
2022-12-28T00:29:04.597Z,76.06
2022-12-28T00:31:33.201Z,75.84
2022-12-28T00:33:59.724Z,76.97
2022-12-28T00:37:08.300Z,76.72
2022-12-28T00:39:12.835Z,76.77
2022-12-28T00:41:39.210Z,76.91
2022-12-28T00:44:05.600Z,75.84
2022-12-28T00:46:32.298Z,76.54
2022-12-28T00:48:58.747Z,76.58
2022-12-28T00:51:25.178Z,76.19
2022-12-28T00:53:51.598Z,76.48
2022-12-28T00:56:20.712Z,76.49
2022-12-28T00:58:47.507Z,75.38
2022-12-28T01:01:17.309Z,76.51
2022-12-28T01:03:43.925Z,75.94
2022-12-28T01:06:13.379Z,75.99
2022-12-28T01:08:40.265Z,76.40
2022-12-28T01:11:12.023Z,75.96
2022-12-28T01:13:38.645Z,76.10
2022-12-28T01:16:15.085Z,76.11
2022-12-28T01:18:42.095Z,76.12
2022-12-28T01:21:17.058Z,74.79
2022-12-28T01:23:44.875Z,75.81
2022-12-28T01:26:11.608Z,75.63
2022-12-28T01:28:38.018Z,74.82
2022-12-28T01:31:10.033Z,74.89
2022-12-28T01:33:36.668Z,76.05
2022-12-28T01:36:36.583Z,74.40
2022-12-28T01:39:05.680Z,75.08
2022-12-28T01:41:35.840Z,75.11
2022-12-28T01:44:02.235Z,75.09
2022-12-28T01:46:39.944Z,75.45
2022-12-28T01:49:52.706Z,74.54
2022-12-28T01:52:41.519Z,75.32
2022-12-28T01:55:13.743Z,74.16
2022-12-28T01:57:51.407Z,75.04
2022-12-28T02:00:18.469Z,73.96
2022-12-28T02:02:56.866Z,75.59
2022-12-28T02:05:28.571Z,74.54
2022-12-28T02:08:02.412Z,74.41
2022-12-28T02:10:44.411Z,73.95
2022-12-28T02:13:14.697Z,74.66
2022-12-28T02:15:41.408Z,75.04
2022-12-28T02:18:09.106Z,74.10
2022-12-28T02:21:00.125Z,74.71
2022-12-28T02:23:54.375Z,75.05
2022-12-28T02:26:46.207Z,73.77
2022-12-28T02:29:12.521Z,74.63
2022-12-28T02:31:50.238Z,74.18
2022-12-28T02:34:26.785Z,74.89
2022-12-28T02:37:01.863Z,73.65
2022-12-28T02:39:37.712Z,74.56
2022-12-28T02:42:05.869Z,74.58
2022-12-28T02:44:50.693Z,74.09
2022-12-28T02:47:35.833Z,73.62
2022-12-28T02:50:06.757Z,74.10
2022-12-28T02:52:45.440Z,74.04
2022-12-28T02:55:42.554Z,74.52
2022-12-28T02:58:36.189Z,74.20
2022-12-28T03:01:24.219Z,73.66
2022-12-28T03:04:15.910Z,74.69
2022-12-28T03:07:19.586Z,74.60
2022-12-28T03:09:53.780Z,74.41
2022-12-28T03:12:29.789Z,74.41
2022-12-28T03:15:30.019Z,73.87
2022-12-28T03:18:38.490Z,73.77
2022-12-28T03:21:28.343Z,72.95
2022-12-28T03:24:14.520Z,72.98
2022-12-28T03:27:08.241Z,73.72
2022-12-28T03:29:58.865Z,73.67
2022-12-28T03:32:25.542Z,72.44
2022-12-28T03:34:52.207Z,72.79
2022-12-28T03:37:34.039Z,72.41
2022-12-28T03:40:24.682Z,73.86
2022-12-28T03:43:14.253Z,73.32
2022-12-28T03:45:52.510Z,73.46
2022-12-28T03:48:19.735Z,72.07
2022-12-28T03:50:49.146Z,73.79
2022-12-28T03:53:18.819Z,73.43
2022-12-28T03:55:45.474Z,71.86
2022-12-28T03:58:11.953Z,73.42
2022-12-28T04:00:38.369Z,72.77
2022-12-28T04:03:04.898Z,72.44
2022-12-28T04:05:31.380Z,71.95
2022-12-28T04:07:57.838Z,72.85
2022-12-28T04:10:24.278Z,72.92
2022-12-28T04:12:54.691Z,73.09
2022-12-28T04:15:21.105Z,72.39
2022-12-28T04:17:47.535Z,72.93
2022-12-28T04:20:13.927Z,73.42
2022-12-28T04:22:40.316Z,72.88
2022-12-28T04:25:07.103Z,71.52
2022-12-28T04:27:33.561Z,72.55
2022-12-28T04:29:59.974Z,72.60
2022-12-28T04:32:26.443Z,72.80
2022-12-28T04:34:52.893Z,71.94
2022-12-28T04:37:19.279Z,72.57
2022-12-28T04:39:56.233Z,72.14
2022-12-28T04:42:24.723Z,72.24
2022-12-28T04:44:51.234Z,72.84
2022-12-28T04:47:17.619Z,72.49
2022-12-28T04:49:44.010Z,72.08
2022-12-28T04:52:10.419Z,73.09
2022-12-28T04:54:36.847Z,72.69
2022-12-28T04:57:03.404Z,72.85
2022-12-28T04:59:30.027Z,71.76
2022-12-28T05:01:56.534Z,72.70
2022-12-28T05:04:23.003Z,73.33
2022-12-28T05:06:49.478Z,72.36
2022-12-28T05:09:16.018Z,72.78
2022-12-28T05:11:42.428Z,72.28
2022-12-28T05:14:08.876Z,72.94
2022-12-28T05:16:35.301Z,72.72
2022-12-28T05:19:01.781Z,72.79
2022-12-28T05:21:28.626Z,72.13
2022-12-28T05:23:55.880Z,73.31
2022-12-28T05:26:24.788Z,71.85
2022-12-28T05:28:51.789Z,72.06
2022-12-28T05:31:21.163Z,71.92
2022-12-28T05:33:48.095Z,72.64
2022-12-28T05:36:24.725Z,72.87
2022-12-28T05:38:52.360Z,71.65
2022-12-28T05:41:21.674Z,72.07
2022-12-28T05:43:49.144Z,71.87
2022-12-28T05:46:21.768Z,71.60
2022-12-28T05:48:48.462Z,71.96
2022-12-28T05:51:17.480Z,73.28
2022-12-28T05:53:43.989Z,72.30
2022-12-28T05:56:16.907Z,72.69
2022-12-28T05:58:44.611Z,72.07
2022-12-28T06:01:13.547Z,72.65
2022-12-28T06:03:40.839Z,71.96
2022-12-28T06:06:12.849Z,72.05
2022-12-28T06:08:40.529Z,71.92
2022-12-28T06:11:09.522Z,71.55
2022-12-28T06:13:36.709Z,72.05
2022-12-28T06:16:13.173Z,71.59
2022-12-28T06:18:40.210Z,72.27
2022-12-28T06:21:18.935Z,72.24
2022-12-28T06:23:46.329Z,72.83
2022-12-28T06:26:15.615Z,72.36
2022-12-28T06:28:42.567Z,72.36
2022-12-28T06:31:13.136Z,72.27
2022-12-28T06:33:40.045Z,72.35
2022-12-28T06:36:20.312Z,74.39
2022-12-28T06:38:48.181Z,73.94
2022-12-28T06:41:15.416Z,74.66
2022-12-28T06:43:43.230Z,73.98
2022-12-28T06:46:10.521Z,74.76
2022-12-28T06:48:37.517Z,75.08
2022-12-28T06:51:11.700Z,74.46
2022-12-28T06:53:38.964Z,74.89
2022-12-28T06:56:08.147Z,75.66
2022-12-28T06:58:34.592Z,75.62
2022-12-28T07:01:09.448Z,75.41
2022-12-28T07:03:36.504Z,75.20
2022-12-28T07:06:04.455Z,75.64
2022-12-28T07:08:32.107Z,76.12
2022-12-28T07:11:13.563Z,76.36
2022-12-28T07:13:40.183Z,76.09
2022-12-28T07:16:11.199Z,76.05
2022-12-28T07:18:38.266Z,75.39
2022-12-28T07:21:07.837Z,76.43
2022-12-28T07:23:35.002Z,75.90
2022-12-28T07:26:16.111Z,76.69
2022-12-28T07:28:44.982Z,76.28
2022-12-28T07:31:14.339Z,75.38
2022-12-28T07:33:41.144Z,75.49
2022-12-28T07:36:09.930Z,75.49
2022-12-28T07:38:36.367Z,75.77
2022-12-28T07:41:08.304Z,75.97
2022-12-28T07:43:35.393Z,76.52
2022-12-28T07:46:01.785Z,75.15
2022-12-28T07:48:32.851Z,76.40
2022-12-28T07:51:07.557Z,76.43
2022-12-28T07:53:34.428Z,75.73
2022-12-28T07:56:00.850Z,76.58
2022-12-28T07:58:27.248Z,77.22
2022-12-28T08:00:53.692Z,77.02
2022-12-28T08:03:20.439Z,77.72
2022-12-28T08:05:46.907Z,78.10
2022-12-28T08:08:13.341Z,79.09
2022-12-28T08:10:39.781Z,78.37
2022-12-28T08:13:06.756Z,79.00
2022-12-28T08:15:33.258Z,79.39
2022-12-28T08:17:59.663Z,78.90
2022-12-28T08:20:26.159Z,80.50
2022-12-28T08:22:53.306Z,79.51
2022-12-28T08:25:19.779Z,79.55
2022-12-28T08:27:46.195Z,81.02
2022-12-28T08:30:13.001Z,79.85
2022-12-28T08:32:39.410Z,80.68
2022-12-28T08:35:06.148Z,80.15
2022-12-28T08:37:32.584Z,81.43
2022-12-28T08:39:58.964Z,80.63
2022-12-28T08:42:25.479Z,80.45
2022-12-28T08:44:51.885Z,80.43
2022-12-28T08:47:18.326Z,81.30
2022-12-28T08:49:44.761Z,81.58
2022-12-28T08:52:11.270Z,81.41
2022-12-28T08:54:37.661Z,80.70
2022-12-28T08:57:04.064Z,81.75
2022-12-28T08:59:30.468Z,80.42
2022-12-28T09:01:57.049Z,81.11
2022-12-28T09:04:23.593Z,81.51
2022-12-28T09:06:50.427Z,80.83
2022-12-28T09:09:19.550Z,80.89
2022-12-28T09:11:47.017Z,81.43
2022-12-28T09:14:22.106Z,80.53
2022-12-28T09:16:50.240Z,80.29
2022-12-28T09:19:16.998Z,80.58
2022-12-28T09:21:45.143Z,80.01
2022-12-28T09:24:13.020Z,79.41
2022-12-28T09:26:39.558Z,80.20
2022-12-28T09:29:08.815Z,79.96
2022-12-28T09:31:36.951Z,79.66
2022-12-28T09:36:51.856Z,79.65
2022-12-28T09:39:20.827Z,79.84
2022-12-28T09:41:52.655Z,80.55
2022-12-28T09:44:30.877Z,79.77
2022-12-28T09:47:03.272Z,79.84
2022-12-28T09:49:44.904Z,79.70
2022-12-28T09:52:14.284Z,79.72
2022-12-28T09:54:41.731Z,79.62
2022-12-28T09:57:14.360Z,79.48
2022-12-28T09:59:41.338Z,80.39
2022-12-28T10:02:19.320Z,80.19
2022-12-28T10:04:49.494Z,80.56
2022-12-28T10:07:16.409Z,80.18
2022-12-28T10:09:42.936Z,80.61
2022-12-28T10:12:22.041Z,80.46
2022-12-28T10:14:49.540Z,80.72
2022-12-28T10:17:20.537Z,81.08
2022-12-28T10:19:47.693Z,80.76
2022-12-28T10:22:18.966Z,81.34
2022-12-28T10:24:46.031Z,81.30
2022-12-28T10:27:30.668Z,81.67
2022-12-28T10:30:01.199Z,81.89
2022-12-28T10:32:37.096Z,81.31
2022-12-28T10:35:04.606Z,81.00
2022-12-28T10:37:34.953Z,82.19
2022-12-28T10:40:16.886Z,80.78
2022-12-28T10:42:46.477Z,80.77
2022-12-28T10:45:22.638Z,80.78
2022-12-28T10:47:53.128Z,80.17
2022-12-28T10:50:49.385Z,79.81
2022-12-28T10:53:31.225Z,79.51
2022-12-28T10:56:01.698Z,79.74
2022-12-28T10:58:29.974Z,79.29
2022-12-28T11:03:56.546Z,79.26
2022-12-28T11:06:29.150Z,79.60
2022-12-28T11:09:14.803Z,79.65
2022-12-28T11:11:43.117Z,80.33
2022-12-28T11:14:31.983Z,80.10
2022-12-28T11:17:15.336Z,80.16
2022-12-28T11:19:42.071Z,80.07
2022-12-28T11:22:13.622Z,79.15
2022-12-28T11:24:40.656Z,79.63
2022-12-28T11:27:13.875Z,79.88
2022-12-28T11:29:45.167Z,79.01
2022-12-28T11:32:40.969Z,78.87
2022-12-28T11:35:07.934Z,79.51
2022-12-28T11:37:34.353Z,79.26
2022-12-28T11:40:00.915Z,79.14
2022-12-28T11:42:41.014Z,78.32
2022-12-28T11:45:35.721Z,78.76
2022-12-28T11:48:41.152Z,78.85
2022-12-28T11:51:30.556Z,78.20
2022-12-28T11:53:59.899Z,78.96
2022-12-28T11:56:44.392Z,78.44
2022-12-28T11:59:26.245Z,78.10
2022-12-28T12:01:54.133Z,78.20
2022-12-28T12:04:29.805Z,78.32
2022-12-28T12:07:01.185Z,77.59
2022-12-28T12:09:32.710Z,77.16
2022-12-28T12:12:02.147Z,78.20
2022-12-28T12:14:35.154Z,77.19
2022-12-28T12:17:07.571Z,77.50
2022-12-28T12:19:38.717Z,76.78
2022-12-28T12:22:20.289Z,77.88
2022-12-28T12:24:55.223Z,76.65
2022-12-28T12:27:33.630Z,77.80
2022-12-28T12:30:02.990Z,76.75
2022-12-28T12:32:42.789Z,76.06
2022-12-28T12:35:15.476Z,76.48
2022-12-28T12:37:56.473Z,76.66
2022-12-28T12:40:35.563Z,76.39
2022-12-28T12:43:13.646Z,77.33
2022-12-28T12:46:08.261Z,76.33
2022-12-28T12:49:00.938Z,76.40
2022-12-28T12:52:06.261Z,76.72
2022-12-28T12:54:41.534Z,77.11
2022-12-28T12:57:21.289Z,77.05
2022-12-28T13:00:10.089Z,76.34
2022-12-28T13:03:21.392Z,77.46
2022-12-28T13:05:53.970Z,77.26
2022-12-28T13:08:25.323Z,77.59
2022-12-28T13:10:53.562Z,77.24
2022-12-28T13:13:31.035Z,77.60
2022-12-28T13:16:02.871Z,78.03
2022-12-28T13:18:46.227Z,78.17
2022-12-28T13:21:18.760Z,78.18
2022-12-28T13:23:46.600Z,76.93
2022-12-28T13:26:15.213Z,77.34
2022-12-28T13:28:52.788Z,77.75
2022-12-28T13:31:22.649Z,77.57
2022-12-28T13:34:01.071Z,77.70
2022-12-28T13:36:27.905Z,77.36
2022-12-28T13:39:10.313Z,76.62
2022-12-28T13:41:38.539Z,77.96
2022-12-28T13:44:14.210Z,77.62
2022-12-28T13:46:44.415Z,77.19
2022-12-28T13:49:12.206Z,77.49
2022-12-28T13:51:40.551Z,76.60
2022-12-28T13:54:09.379Z,77.70
2022-12-28T13:56:39.257Z,77.12
2022-12-28T13:59:14.049Z,75.96
2022-12-28T14:01:43.845Z,77.67
2022-12-28T14:07:03.389Z,76.91
2022-12-28T14:09:30.038Z,77.54
2022-12-28T14:11:57.521Z,76.83
2022-12-28T14:14:24.517Z,77.41
2022-12-28T14:16:51.332Z,78.31
2022-12-28T14:19:17.986Z,77.57
2022-12-28T14:21:45.487Z,78.01
2022-12-28T14:24:15.049Z,78.11
2022-12-28T14:27:07.635Z,79.25
2022-12-28T14:29:34.899Z,79.54
2022-12-28T14:32:04.591Z,79.29
2022-12-28T14:34:34.636Z,77.96
2022-12-28T14:37:01.636Z,78.08
2022-12-28T14:39:34.698Z,78.61
2022-12-28T14:42:04.352Z,77.88
2022-12-28T14:44:32.749Z,76.72
2022-12-28T14:47:00.803Z,77.55
2022-12-28T14:49:30.095Z,77.63
2022-12-28T14:52:06.061Z,77.30
2022-12-28T14:54:44.066Z,77.45
2022-12-28T14:57:40.883Z,76.37
2022-12-28T15:00:21.121Z,76.17
2022-12-28T15:02:48.298Z,76.84
2022-12-28T15:05:35.053Z,77.89
2022-12-28T15:08:02.017Z,77.76
2022-12-28T15:10:28.508Z,76.44
2022-12-28T15:12:54.971Z,76.52
2022-12-28T15:15:21.767Z,76.15
2022-12-28T15:17:48.343Z,76.53
2022-12-28T15:20:15.306Z,76.38
2022-12-28T15:22:41.857Z,76.98
2022-12-28T15:25:08.887Z,76.87
2022-12-28T15:27:35.331Z,76.47
2022-12-28T15:30:06.284Z,78.13
2022-12-28T15:32:33.724Z,76.40
2022-12-28T15:35:00.201Z,77.90
2022-12-28T15:37:26.696Z,76.06
2022-12-28T15:39:53.106Z,76.38
2022-12-28T15:42:19.614Z,77.49
2022-12-28T15:44:48.478Z,77.20
2022-12-28T15:47:15.022Z,76.81
2022-12-28T15:49:41.457Z,76.73
2022-12-28T15:52:07.936Z,76.84
2022-12-28T15:54:34.419Z,77.84
2022-12-28T15:57:00.815Z,77.45
2022-12-28T15:59:28.079Z,76.20
2022-12-28T16:01:55.034Z,77.88
2022-12-28T16:04:21.690Z,77.32
2022-12-28T16:06:48.217Z,77.07
2022-12-28T16:09:14.702Z,77.22
2022-12-28T16:11:41.744Z,76.81
2022-12-28T16:14:14.668Z,78.58
2022-12-28T16:16:41.964Z,77.47
2022-12-28T16:19:10.466Z,77.79
2022-12-28T16:21:36.910Z,78.13
2022-12-28T16:24:03.589Z,78.35
2022-12-28T16:26:30.052Z,78.47
2022-12-28T16:28:57.721Z,77.16
2022-12-28T16:31:32.575Z,78.46
2022-12-28T16:34:25.616Z,77.40
2022-12-28T16:36:56.858Z,78.49
2022-12-28T16:39:23.657Z,77.71
2022-12-28T16:41:50.117Z,78.77
2022-12-28T16:44:19.452Z,78.02
2022-12-28T16:46:46.300Z,79.22
2022-12-28T16:49:12.931Z,78.24
2022-12-28T16:51:42.117Z,77.67
2022-12-28T16:54:08.692Z,77.81
2022-12-28T16:56:35.156Z,78.07
2022-12-28T16:59:01.619Z,79.64
2022-12-28T17:01:28.607Z,79.41
2022-12-28T17:04:01.870Z,79.89
2022-12-28T17:06:30.624Z,78.83
2022-12-28T17:08:57.034Z,79.93
2022-12-28T17:11:23.533Z,78.94
2022-12-28T17:13:49.991Z,79.96
2022-12-28T17:16:16.547Z,79.24
2022-12-28T17:18:43.227Z,80.22
2022-12-28T17:21:10.300Z,80.74
2022-12-28T17:23:39.376Z,80.38
2022-12-28T17:26:06.496Z,80.82
2022-12-28T17:28:33.169Z,80.75
2022-12-28T17:31:09.706Z,80.28
2022-12-28T17:33:39.794Z,79.67
2022-12-28T17:36:07.876Z,80.49
2022-12-28T17:38:34.323Z,79.69
2022-12-28T17:41:06.799Z,80.19
2022-12-28T17:43:33.196Z,79.22
2022-12-28T17:46:03.126Z,79.16
2022-12-28T17:48:30.388Z,79.83
2022-12-28T17:50:58.926Z,80.16
2022-12-28T17:53:25.922Z,80.21
2022-12-28T17:55:52.472Z,79.23
2022-12-28T17:58:18.955Z,80.28
2022-12-28T18:00:45.421Z,79.04
2022-12-28T18:03:11.941Z,79.02
2022-12-28T18:05:38.364Z,80.12
2022-12-28T18:08:05.104Z,79.40
2022-12-28T18:10:31.599Z,77.97
2022-12-28T18:12:58.103Z,79.16
2022-12-28T18:15:27.334Z,79.26
2022-12-28T18:17:57.933Z,79.10
2022-12-28T18:20:24.393Z,79.06
2022-12-28T18:22:50.801Z,79.39
2022-12-28T18:25:17.420Z,78.34
2022-12-28T18:27:43.867Z,79.17
2022-12-28T18:30:10.990Z,79.40
2022-12-28T18:32:37.894Z,78.37
2022-12-28T18:35:04.878Z,80.01
2022-12-28T18:37:31.661Z,80.01
2022-12-28T18:39:58.209Z,80.30
2022-12-28T18:42:25.565Z,79.82
2022-12-28T18:44:52.075Z,79.86
2022-12-28T18:47:18.545Z,80.24
2022-12-28T18:49:47.325Z,79.46
2022-12-28T18:52:15.175Z,80.46
2022-12-28T18:54:41.663Z,80.66
2022-12-28T18:57:08.551Z,80.31
2022-12-28T18:59:35.010Z,81.78
2022-12-28T19:02:11.953Z,81.54
2022-12-28T19:04:43.426Z,81.81
2022-12-28T19:07:10.103Z,81.26
2022-12-28T19:09:36.652Z,82.00
2022-12-28T19:12:03.459Z,80.96
2022-12-28T19:14:29.970Z,81.78
2022-12-28T19:16:56.425Z,81.55
2022-12-28T19:19:22.891Z,82.04
2022-12-28T19:21:53.671Z,81.58
2022-12-28T19:24:23.231Z,82.35
2022-12-28T19:26:51.221Z,82.91
2022-12-28T19:29:17.779Z,82.69
2022-12-28T19:31:44.361Z,83.04
2022-12-28T19:34:10.971Z,82.41
2022-12-28T19:36:37.478Z,83.24
2022-12-28T19:39:04.072Z,82.47
2022-12-28T19:41:30.640Z,82.35
2022-12-28T19:43:57.135Z,83.67
2022-12-28T19:46:30.808Z,83.13
2022-12-28T19:48:59.292Z,82.92
2022-12-28T19:51:30.582Z,82.99
2022-12-28T19:53:58.528Z,83.13
2022-12-28T19:56:25.235Z,83.42
2022-12-28T19:58:52.425Z,83.08
2022-12-28T20:01:22.662Z,82.42
2022-12-28T20:03:49.277Z,82.13
2022-12-28T20:06:22.237Z,82.75
2022-12-28T20:08:50.800Z,82.63
2022-12-28T20:11:19.100Z,82.95
2022-12-28T20:13:50.756Z,83.08
2022-12-28T20:16:17.393Z,83.01
2022-12-28T20:18:51.063Z,82.73
2022-12-28T20:21:20.550Z,81.79
2022-12-28T20:23:49.377Z,82.09
2022-12-28T20:26:16.188Z,82.13
2022-12-28T20:28:42.637Z,81.90
2022-12-28T20:31:12.500Z,81.99
2022-12-28T20:33:39.495Z,82.46
2022-12-28T20:36:08.908Z,82.77
2022-12-28T20:38:35.342Z,82.07
2022-12-28T20:41:08.953Z,82.26
2022-12-28T20:43:36.074Z,82.68
2022-12-28T20:46:03.120Z,81.89
2022-12-28T20:48:29.912Z,81.15
2022-12-28T20:51:00.533Z,81.85
2022-12-28T20:53:28.262Z,82.19
2022-12-28T20:55:54.661Z,81.33
2022-12-28T20:58:21.489Z,81.26
2022-12-28T21:00:48.115Z,81.37
2022-12-28T21:03:14.779Z,81.28
2022-12-28T21:05:41.316Z,81.48
2022-12-28T21:08:07.735Z,80.89
2022-12-28T21:10:34.170Z,81.62
2022-12-28T21:13:00.653Z,81.35
2022-12-28T21:15:27.194Z,80.09
2022-12-28T21:17:53.666Z,81.29
2022-12-28T21:20:20.118Z,81.23
2022-12-28T21:22:46.571Z,81.40
2022-12-28T21:25:12.966Z,80.53
2022-12-28T21:27:39.346Z,80.09
2022-12-28T21:30:06.509Z,79.74
2022-12-28T21:32:32.938Z,79.87
2022-12-28T21:34:59.404Z,79.42
2022-12-28T21:37:34.606Z,80.91
2022-12-28T21:40:06.322Z,80.83
2022-12-28T21:42:32.769Z,80.85
2022-12-28T21:44:59.497Z,79.55
2022-12-28T21:47:26.020Z,79.52
2022-12-28T21:49:52.419Z,80.18
2022-12-28T21:52:19.042Z,79.35
2022-12-28T21:54:45.518Z,79.58
2022-12-28T21:57:12.813Z,79.60
2022-12-28T21:59:39.925Z,79.67
2022-12-28T22:02:36.689Z,79.95
2022-12-28T22:05:22.931Z,79.57
2022-12-28T22:08:10.162Z,79.40
2022-12-28T22:10:56.496Z,79.06
2022-12-28T22:13:23.185Z,79.00
2022-12-28T22:15:52.506Z,79.48
2022-12-28T22:18:44.861Z,79.52
2022-12-28T22:21:11.339Z,78.31
2022-12-28T22:23:37.778Z,78.56
2022-12-28T22:26:04.266Z,79.34
2022-12-28T22:28:30.985Z,78.31
2022-12-28T22:30:57.492Z,78.14
2022-12-28T22:33:23.912Z,79.13
2022-12-28T22:35:50.348Z,78.65
2022-12-28T22:38:16.719Z,78.51
2022-12-28T22:40:43.169Z,79.83
2022-12-28T22:43:09.610Z,78.67
2022-12-28T22:45:36.172Z,79.87
2022-12-28T22:48:02.647Z,79.19
2022-12-28T22:50:29.179Z,79.22
2022-12-28T22:52:56.533Z,80.04
2022-12-28T22:55:22.918Z,80.01
2022-12-28T22:57:49.410Z,79.95
2022-12-28T23:00:16.190Z,79.92
2022-12-28T23:02:43.063Z,79.16
2022-12-28T23:05:10.184Z,79.81
2022-12-28T23:07:38.463Z,79.85
2022-12-28T23:10:06.693Z,80.30
2022-12-28T23:12:33.656Z,80.19
2022-12-28T23:15:19.182Z,79.55
2022-12-28T23:17:48.120Z,79.28
2022-12-28T23:20:33.606Z,80.04
2022-12-28T23:23:18.415Z,79.50
2022-12-28T23:26:03.138Z,80.37
2022-12-28T23:28:29.617Z,79.43
2022-12-28T23:30:56.520Z,79.76
2022-12-28T23:33:23.577Z,79.90
2022-12-28T23:35:50.084Z,79.63
2022-12-28T23:38:16.516Z,79.21
2022-12-28T23:40:43.231Z,80.12
2022-12-28T23:43:09.912Z,79.54
2022-12-28T23:45:36.862Z,79.64
2022-12-28T23:48:04.327Z,79.91
2022-12-28T23:50:30.776Z,78.83
2022-12-28T23:52:57.152Z,79.85
2022-12-28T23:55:23.579Z,78.87
2022-12-28T23:57:50.052Z,79.81
